Time;durP1;ratioP1;P1;durP2;ratioP2;P2;SDS_P1;SDS_P2;PMS_P1;PMS_P2;Temp;Humidity;BMP_temperature;BMP_pressure;BME280_temperature;BME280_humidity;BME280_pressure;Samples;Min_cycle;Max_cycle;Signal;HPM_P1;HPM_P2
2022/03/26 05:01:29;;;;;;;65.40;29.58;;;5.50;99.90;;;;;;5388030;23;20262;-65
2022/03/26 05:03:57;;;;;;;62.83;28.95;;;5.60;99.90;;;;;;4914593;29;20217;-67
2022/03/26 05:06:24;;;;;;;54.38;28.15;;;5.60;99.90;;;;;;4913446;29;20230;-67
2022/03/26 05:08:50;;;;;;;56.72;28.95;;;5.50;99.90;;;;;;4914561;29;20215;-67
2022/03/26 05:11:18;;;;;;;66.28;30.30;;;5.60;99.90;;;;;;4915721;29;20261;-66
2022/03/26 05:13:45;;;;;;;62.13;29.00;;;5.50;99.90;;;;;;4895361;29;20211;-67
2022/03/26 05:16:12;;;;;;;70.78;30.75;;;5.50;99.90;;;;;;4904776;29;20202;-67
2022/03/26 05:18:41;;;;;;;64.03;32.53;;;5.50;99.90;;;;;;4896856;29;20732;-67
2022/03/26 05:21:08;;;;;;;66.05;30.85;;;5.50;99.90;;;;;;4926343;29;20731;-66
2022/03/26 05:23:36;;;;;;;64.40;30.88;;;5.50;99.90;;;;;;4905619;29;20680;-67
2022/03/26 05:26:03;;;;;;;65.38;30.75;;;5.50;99.90;;;;;;4900806;29;20215;-67
2022/03/26 05:28:30;;;;;;;65.20;31.75;;;5.60;99.90;;;;;;4900773;29;20358;-66
2022/03/26 05:30:56;;;;;;;66.25;31.00;;;5.60;99.90;;;;;;4927614;29;20233;-67
2022/03/26 05:33:23;;;;;;;69.90;30.83;;;5.60;99.90;;;;;;4907925;29;20222;-66
2022/03/26 05:35:51;;;;;;;71.15;31.30;;;5.60;99.90;;;;;;4921980;29;20211;-66
2022/03/26 05:38:18;;;;;;;84.97;35.08;;;5.60;99.90;;;;;;4913425;29;20274;-66
2022/03/26 05:40:44;;;;;;;68.78;30.13;;;5.60;99.90;;;;;;4912893;29;20230;-66
2022/03/26 05:43:11;;;;;;;62.58;31.45;;;5.70;99.90;;;;;;4905853;29;20206;-66
2022/03/26 05:45:38;;;;;;;70.28;32.70;;;5.70;99.90;;;;;;4933302;29;20210;-66
2022/03/26 05:48:07;;;;;;;76.38;33.78;;;5.70;99.90;;;;;;4917467;29;20226;-66
2022/03/26 05:50:34;;;;;;;69.45;32.47;;;5.80;99.90;;;;;;4932524;29;20601;-66
2022/03/26 05:53:03;;;;;;;67.63;30.20;;;5.80;99.90;;;;;;4901115;29;20351;-66
2022/03/26 05:55:29;;;;;;;68.15;30.75;;;5.90;99.90;;;;;;4911300;29;20211;-67
2022/03/26 05:57:56;;;;;;;69.07;33.47;;;5.90;99.90;;;;;;4915374;29;20203;-66
2022/03/26 06:00:23;;;;;;;73.22;33.35;;;5.90;99.90;;;;;;4913350;29;20793;-66
2022/03/26 06:02:49;;;;;;;73.93;33.92;;;6.00;99.90;;;;;;4914953;29;20643;-67
2022/03/26 06:05:17;;;;;;;64.25;33.40;;;6.10;99.90;;;;;;4901232;29;20206;-66
2022/03/26 06:07:43;;;;;;;62.03;31.95;;;6.10;99.90;;;;;;4920072;29;20240;-66
2022/03/26 06:10:11;;;;;;;64.30;33.05;;;6.20;99.90;;;;;;4932660;29;20261;-66
2022/03/26 06:12:38;;;;;;;68.68;33.08;;;6.30;99.90;;;;;;4919858;29;20202;-65
2022/03/26 06:15:06;;;;;;;70.00;33.38;;;6.30;99.90;;;;;;4916584;29;20621;-66
2022/03/26 06:17:33;;;;;;;71.10;34.30;;;6.40;99.90;;;;;;4916224;29;21248;-65
2022/03/26 06:19:59;;;;;;;73.07;37.20;;;6.50;99.90;;;;;;4914814;29;20211;-65
2022/03/26 06:22:27;;;;;;;71.75;36.20;;;6.60;99.90;;;;;;4924985;29;21067;-66
2022/03/26 06:24:54;;;;;;;70.90;34.60;;;6.70;99.90;;;;;;4928742;29;20309;-65
2022/03/26 06:27:22;;;;;;;70.68;34.90;;;6.80;99.90;;;;;;4927944;29;20234;-65
2022/03/26 06:29:49;;;;;;;75.30;35.50;;;6.90;99.90;;;;;;4914809;29;20382;-66
2022/03/26 06:32:15;;;;;;;73.25;34.65;;;7.00;99.90;;;;;;4926375;29;20280;-66
2022/03/26 06:34:42;;;;;;;75.32;38.65;;;7.10;99.90;;;;;;4899425;29;20640;-66
2022/03/26 06:37:09;;;;;;;75.80;33.55;;;7.20;99.90;;;;;;4914523;29;20206;-65
2022/03/26 06:39:36;;;;;;;65.20;35.13;;;7.30;99.90;;;;;;4909602;29;20266;-66
2022/03/26 06:42:04;;;;;;;67.88;33.97;;;7.40;99.90;;;;;;4915249;29;20240;-67
2022/03/26 06:44:31;;;;;;;75.13;37.35;;;7.50;99.90;;;;;;4929287;29;20210;-65
2022/03/26 06:46:58;;;;;;;76.20;37.72;;;7.60;99.90;;;;;;4916738;29;20226;-65
2022/03/26 06:49:30;;;;;;;73.80;37.15;;;7.70;99.90;;;;;;4911194;29;20667;-66
2022/03/26 06:51:57;;;;;;;80.03;37.13;;;7.80;99.90;;;;;;4922798;29;20230;-66
2022/03/26 06:54:23;;;;;;;70.63;35.53;;;7.90;99.90;;;;;;4926600;29;20215;-65
2022/03/26 06:56:50;;;;;;;62.40;35.47;;;8.00;99.90;;;;;;4921392;29;20214;-65
2022/03/26 06:59:17;;;;;;;69.85;37.55;;;8.10;99.90;;;;;;4905525;29;20233;-66
2022/03/26 07:01:45;;;;;;;70.30;34.83;;;8.10;99.90;;;;;;4903713;29;20739;-66
2022/03/26 07:04:12;;;;;;;70.90;33.72;;;8.20;99.90;;;;;;4915608;29;20601;-65
2022/03/26 07:06:39;;;;;;;62.28;31.35;;;8.30;99.90;;;;;;4912313;29;20667;-66
2022/03/26 07:09:05;;;;;;;64.38;32.88;;;8.40;99.90;;;;;;4935849;29;20218;-65
2022/03/26 07:11:32;;;;;;;72.63;33.55;;;8.40;99.90;;;;;;4916707;29;20715;-65
2022/03/26 07:13:59;;;;;;;65.13;33.15;;;8.50;99.90;;;;;;4901531;29;20793;-64
2022/03/26 07:16:25;;;;;;;58.63;31.60;;;8.60;99.90;;;;;;4907633;29;20247;-65
2022/03/26 07:18:55;;;;;;;62.97;33.92;;;8.80;99.90;;;;;;4898800;29;20203;-65
2022/03/26 07:21:22;;;;;;;60.08;30.10;;;8.90;99.90;;;;;;4896591;29;20235;-65
2022/03/26 07:23:49;;;;;;;57.88;31.23;;;9.10;99.90;;;;;;4901027;29;20203;-65
2022/03/26 07:26:15;;;;;;;56.10;29.42;;;9.30;99.90;;;;;;4931087;29;20288;-66
2022/03/26 07:28:42;;;;;;;54.05;28.48;;;9.40;99.90;;;;;;4910432;29;20230;-65
2022/03/26 07:31:08;;;;;;;51.10;29.30;;;9.50;99.90;;;;;;4914038;29;20277;-66
2022/03/26 07:33:35;;;;;;;62.58;29.58;;;9.60;99.90;;;;;;4914651;29;20210;-65
2022/03/26 07:36:03;;;;;;;51.47;29.58;;;9.50;99.90;;;;;;4914120;29;20207;-65
2022/03/26 07:38:30;;;;;;;45.17;24.95;;;9.60;99.90;;;;;;4915358;29;20210;-65
2022/03/26 07:40:57;;;;;;;55.35;28.77;;;9.60;99.90;;;;;;4918874;29;20230;-66
2022/03/26 07:43:23;;;;;;;52.50;26.48;;;9.70;99.90;;;;;;4900704;29;20637;-67
2022/03/26 07:45:50;;;;;;;52.88;26.50;;;9.80;99.90;;;;;;4908171;29;20694;-65
2022/03/26 07:48:16;;;;;;;52.55;25.40;;;9.80;99.90;;;;;;4905643;29;20590;-66
2022/03/26 07:50:43;;;;;;;54.15;27.50;;;9.80;99.90;;;;;;4909439;29;20230;-64
2022/03/26 07:53:11;;;;;;;46.65;25.15;;;9.90;99.90;;;;;;4914952;29;20207;-66
2022/03/26 07:55:38;;;;;;;51.67;28.05;;;10.00;99.90;;;;;;4918181;29;20270;-66
2022/03/26 07:58:04;;;;;;;47.63;25.50;;;10.00;99.90;;;;;;4917255;29;20248;-66
2022/03/26 08:00:31;;;;;;;47.35;25.60;;;10.10;99.90;;;;;;4919131;29;20518;-66
2022/03/26 08:02:58;;;;;;;48.35;26.27;;;10.10;99.90;;;;;;4914094;29;20266;-66
2022/03/26 08:05:24;;;;;;;43.42;26.05;;;10.20;99.90;;;;;;4920824;29;20682;-66
2022/03/26 08:07:51;;;;;;;50.05;23.77;;;10.20;99.90;;;;;;4920800;29;20226;-66
2022/03/26 08:10:19;;;;;;;51.40;25.55;;;10.30;99.90;;;;;;4914527;29;20266;-66
2022/03/26 08:12:45;;;;;;;47.65;24.55;;;10.40;99.90;;;;;;4914817;29;20700;-65
2022/03/26 08:15:12;;;;;;;51.47;25.92;;;10.40;99.90;;;;;;4932363;29;20214;-66
2022/03/26 08:17:39;;;;;;;52.83;27.95;;;10.50;99.90;;;;;;4933953;29;20226;-65
2022/03/26 08:20:07;;;;;;;57.40;27.38;;;10.50;99.90;;;;;;4913514;29;20210;-66
2022/03/26 08:22:35;;;;;;;48.67;26.98;;;10.60;99.90;;;;;;4909368;29;20238;-66
2022/03/26 08:25:02;;;;;;;48.05;26.15;;;10.60;99.90;;;;;;4915069;29;20254;-65
2022/03/26 08:27:30;;;;;;;56.95;28.02;;;10.70;99.90;;;;;;4908853;29;20239;-65
2022/03/26 08:29:57;;;;;;;42.40;24.00;;;10.80;99.90;;;;;;4909897;29;20215;-65
2022/03/26 08:32:24;;;;;;;48.28;25.13;;;10.90;99.90;;;;;;4924510;29;20234;-66
2022/03/26 08:34:50;;;;;;;48.25;25.70;;;11.00;99.90;;;;;;4934650;29;20270;-65
2022/03/26 08:37:17;;;;;;;46.15;24.30;;;11.10;99.90;;;;;;4928517;29;20198;-66
2022/03/26 08:39:44;;;;;;;39.92;23.50;;;11.30;99.90;;;;;;4915750;29;20603;-67
2022/03/26 08:42:11;;;;;;;38.80;22.05;;;11.50;99.90;;;;;;4908719;29;20263;-66
2022/03/26 08:44:39;;;;;;;40.50;20.67;;;11.70;99.90;;;;;;4902117;29;20218;-66
2022/03/26 08:47:06;;;;;;;35.97;19.60;;;11.90;99.90;;;;;;4914591;29;20546;-66
2022/03/26 08:49:33;;;;;;;31.90;19.60;;;12.20;99.90;;;;;;4907956;29;20483;-67
2022/03/26 08:52:00;;;;;;;26.83;17.10;;;12.40;99.90;;;;;;4896879;29;21002;-65
2022/03/26 08:54:27;;;;;;;22.43;12.90;;;12.70;99.90;;;;;;4926804;29;20469;-66
2022/03/26 08:56:53;;;;;;;14.20;9.37;;;12.90;99.90;;;;;;4923257;29;20494;-66
2022/03/26 08:59:22;;;;;;;13.80;9.03;;;13.00;99.90;;;;;;4912312;29;20470;-66
2022/03/26 09:01:50;;;;;;;14.43;9.77;;;13.10;99.90;;;;;;4911197;29;20532;-66
2022/03/26 09:04:17;;;;;;;12.60;8.93;;;13.10;99.90;;;;;;4906959;29;20533;-66
2022/03/26 09:06:44;;;;;;;11.10;9.00;;;13.10;99.90;;;;;;4914109;29;20467;-66
2022/03/26 09:09:11;;;;;;;11.43;7.40;;;13.10;99.90;;;;;;4912163;29;20522;-66
2022/03/26 09:11:37;;;;;;;12.83;9.23;;;13.20;99.90;;;;;;4914156;29;20490;-66
2022/03/26 09:14:04;;;;;;;15.70;10.30;;;13.20;99.90;;;;;;4896619;29;20491;-66
2022/03/26 09:16:31;;;;;;;10.90;8.13;;;13.30;99.90;;;;;;4912392;29;20525;-66
2022/03/26 09:18:59;;;;;;;12.70;8.57;;;13.30;99.90;;;;;;4911403;29;20458;-66
2022/03/26 09:21:26;;;;;;;10.37;8.00;;;13.40;99.90;;;;;;4905926;29;20493;-66
2022/03/26 09:23:52;;;;;;;13.37;9.07;;;13.50;99.90;;;;;;4914659;29;20469;-66
2022/03/26 09:26:19;;;;;;;9.30;7.83;;;13.70;99.90;;;;;;4916091;29;20470;-65
2022/03/26 09:28:46;;;;;;;9.73;8.63;;;13.80;99.90;;;;;;4909694;29;20493;-67
2022/03/26 09:31:13;;;;;;;11.07;8.17;;;13.90;99.90;;;;;;4913484;29;21073;-65
2022/03/26 09:33:40;;;;;;;12.87;8.60;;;13.90;99.90;;;;;;4908174;29;20474;-65
2022/03/26 09:36:08;;;;;;;10.13;8.00;;;13.90;99.90;;;;;;4921510;29;20461;-65
2022/03/26 09:38:35;;;;;;;12.30;7.30;;;13.90;99.90;;;;;;4922745;29;20532;-65
2022/03/26 09:41:01;;;;;;;14.83;9.10;;;14.00;99.90;;;;;;4916037;29;20542;-65
2022/03/26 09:43:29;;;;;;;10.37;8.10;;;14.00;99.90;;;;;;4912758;29;20477;-67
2022/03/26 09:45:56;;;;;;;13.07;9.83;;;14.10;99.90;;;;;;4914227;29;20521;-65
2022/03/26 09:48:22;;;;;;;12.90;8.30;;;14.30;99.90;;;;;;4918028;29;20597;-65
2022/03/26 09:50:53;;;;;;;12.30;7.47;;;14.40;99.90;;;;;;4904058;29;20483;-66
2022/03/26 09:53:22;;;;;;;9.30;6.40;;;14.60;99.90;;;;;;4925295;29;20509;-66
2022/03/26 09:55:48;;;;;;;9.43;6.40;;;14.60;99.90;;;;;;4916857;29;20517;-66
2022/03/26 09:58:15;;;;;;;9.73;8.37;;;14.60;99.90;;;;;;4922667;29;20540;-66
2022/03/26 10:00:42;;;;;;;10.70;6.87;;;14.70;99.90;;;;;;4901436;29;20503;-66
2022/03/26 10:03:08;;;;;;;12.07;7.00;;;14.80;99.90;;;;;;4906847;29;20454;-66
2022/03/26 10:05:36;;;;;;;9.63;6.27;;;14.90;99.90;;;;;;4916452;29;20459;-66
2022/03/26 10:08:22;;;;;;;8.93;7.07;;;14.80;99.90;;;;;;4916199;29;20866;-66
2022/03/26 10:10:50;;;;;;;10.40;6.57;;;14.80;99.90;;;;;;4913824;29;20502;-67
2022/03/26 10:13:38;;;;;;;9.03;6.93;;;14.80;99.90;;;;;;4920115;29;20584;-66
2022/03/26 10:16:06;;;;;;;14.50;7.67;;;14.60;99.90;;;;;;4910317;29;20463;-66
2022/03/26 10:18:35;;;;;;;12.77;7.97;;;14.40;99.90;;;;;;4910845;29;20458;-66
2022/03/26 10:21:02;;;;;;;9.47;6.57;;;14.30;99.90;;;;;;4906309;29;21043;-66
2022/03/26 10:23:32;;;;;;;10.73;7.20;;;14.20;99.90;;;;;;4906552;29;20517;-66
2022/03/26 10:26:09;;;;;;;9.57;7.17;;;14.20;99.90;;;;;;4914351;29;20463;-66
2022/03/26 10:28:35;;;;;;;8.10;7.27;;;14.10;99.90;;;;;;4915659;29;20490;-66
2022/03/26 10:34:07;;;;;;;7.47;6.13;;;14.10;99.90;;;;;;4921123;29;20467;-65
2022/03/26 10:36:36;;;;;;;6.33;5.23;;;14.20;99.90;;;;;;4898926;29;20471;-65
2022/03/26 10:39:05;;;;;;;9.60;6.30;;;14.20;99.90;;;;;;4903904;29;21030;-65
2022/03/26 10:41:33;;;;;;;6.63;6.00;;;14.20;99.90;;;;;;4910282;29;21042;-66
2022/03/26 10:44:08;;;;;;;7.47;6.40;;;14.20;99.90;;;;;;4914396;29;20968;-66
2022/03/26 10:46:46;;;;;;;9.63;6.27;;;14.20;99.90;;;;;;4915296;29;20516;-66
2022/03/26 10:49:14;;;;;;;14.50;6.43;;;14.20;99.90;;;;;;4918002;29;20569;-66
2022/03/26 10:51:42;;;;;;;7.27;6.57;;;14.20;99.90;;;;;;4914536;29;20565;-66
2022/03/26 10:54:11;;;;;;;7.37;6.10;;;14.20;99.90;;;;;;4897603;29;20475;-66
2022/03/26 10:56:39;;;;;;;10.07;7.13;;;14.30;99.90;;;;;;4901118;29;20474;-68
2022/03/26 10:59:06;;;;;;;7.20;5.40;;;14.40;99.90;;;;;;4910668;29;20554;-67
2022/03/26 11:01:34;;;;;;;9.25;6.18;;;14.60;99.90;;;;;;4899354;29;20918;-65
2022/03/26 11:04:01;;;;;;;15.03;6.67;;;14.60;99.90;;;;;;4896510;29;20207;-65
2022/03/26 11:06:28;;;;;;;9.33;5.60;;;14.60;99.90;;;;;;4896381;29;20467;-66
2022/03/26 11:08:59;;;;;;;8.20;7.40;;;14.70;99.90;;;;;;4897987;29;20498;-66
2022/03/26 11:11:28;;;;;;;6.60;5.57;;;14.80;99.90;;;;;;4906183;29;20509;-65
2022/03/26 11:13:59;;;;;;;7.43;5.83;;;14.90;99.90;;;;;;4916225;29;20967;-66
2022/03/26 11:16:35;;;;;;;6.70;5.87;;;15.00;99.90;;;;;;4900363;29;20876;-66
2022/03/26 11:19:13;;;;;;;5.73;4.97;;;15.10;99.90;;;;;;4921549;29;20465;-66
2022/03/26 11:22:08;;;;;;;6.43;5.10;;;15.20;99.90;;;;;;4907346;29;20541;-65
2022/03/26 11:24:49;;;;;;;6.10;5.00;;;15.30;99.90;;;;;;4908578;29;20654;-67
2022/03/26 11:27:35;;;;;;;6.10;5.50;;;15.50;99.90;;;;;;4905732;29;20467;-66
2022/03/26 11:30:09;;;;;;;6.50;5.17;;;15.50;99.90;;;;;;4918673;29;20490;-65
2022/03/26 11:32:43;;;;;;;6.17;4.27;;;15.30;99.90;;;;;;4910932;29;20546;-66
2022/03/26 11:35:11;;;;;;;5.57;4.90;;;15.20;99.90;;;;;;4899073;29;20487;-66
2022/03/26 11:37:50;;;;;;;4.73;4.33;;;15.20;99.90;;;;;;4896886;29;20499;-66
2022/03/26 11:40:40;;;;;;;4.37;4.07;;;15.20;99.90;;;;;;4909329;29;20492;-65
2022/03/26 11:43:08;;;;;;;6.37;4.90;;;15.30;99.90;;;;;;4915747;29;20610;-68
2022/03/26 11:51:21;;;;;;;4.20;3.90;;;15.40;99.90;;;;;;4902370;29;20992;-68
2022/03/26 11:53:49;;;;;;;3.90;3.60;;;15.40;99.90;;;;;;4900934;29;20912;-70
2022/03/26 11:56:24;;;;;;;3.60;3.03;;;15.40;99.90;;;;;;4902889;29;20482;-67
2022/03/26 11:59:08;;;;;;;4.80;3.20;;;15.40;99.90;;;;;;4906089;29;20521;-68
2022/03/26 12:01:36;;;;;;;4.27;3.97;;;15.40;99.90;;;;;;4895636;29;20551;-68
2022/03/26 12:04:10;;;;;;;4.50;3.80;;;15.40;99.90;;;;;;4896185;29;20471;-67
2022/03/26 12:06:43;;;;;;;3.50;3.27;;;15.50;99.90;;;;;;4896692;29;20506;-68
2022/03/26 12:09:11;;;;;;;4.30;4.00;;;15.50;99.90;;;;;;4912152;29;20912;-67
2022/03/26 12:11:38;;;;;;;4.47;4.07;;;15.40;99.90;;;;;;4925928;29;20986;-70
2022/03/26 12:14:07;;;;;;;3.43;3.33;;;15.30;99.90;;;;;;4911068;29;20526;-67
2022/03/26 12:16:54;;;;;;;4.07;3.80;;;15.40;99.90;;;;;;4916630;29;20533;-68
2022/03/26 12:19:36;;;;;;;3.87;3.57;;;15.30;99.90;;;;;;4933753;29;20520;-69
2022/03/26 12:22:18;;;;;;;4.00;3.70;;;15.30;99.90;;;;;;4898943;29;21009;-68
2022/03/26 12:24:45;;;;;;;4.03;3.67;;;15.40;99.90;;;;;;4914157;29;20503;-68
2022/03/26 12:27:12;;;;;;;4.10;3.80;;;15.40;99.90;;;;;;4897144;29;20471;-68
2022/03/26 12:29:40;;;;;;;5.40;4.90;;;15.40;99.90;;;;;;4895455;29;20490;-67
2022/03/26 12:32:07;;;;;;;4.83;4.40;;;15.40;99.90;;;;;;4899038;29;20802;-68
2022/03/26 12:34:34;;;;;;;5.77;5.17;;;15.40;99.90;;;;;;4896136;29;20801;-67
2022/03/26 12:37:01;;;;;;;7.83;4.90;;;15.40;99.90;;;;;;4895079;29;20467;-67
2022/03/26 12:39:28;;;;;;;5.60;5.10;;;15.40;99.90;;;;;;4896303;29;20468;-65
2022/03/26 12:41:55;;;;;;;7.37;6.20;;;15.50;99.90;;;;;;4900659;29;20586;-68
2022/03/26 12:44:22;;;;;;;7.47;6.10;;;15.50;99.90;;;;;;4907683;29;20535;-67
2022/03/26 12:46:56;;;;;;;6.60;6.10;;;15.50;99.90;;;;;;4899115;29;20466;-68
2022/03/26 12:49:23;;;;;;;7.40;6.70;;;15.40;99.90;;;;;;4895719;29;20491;-68
2022/03/26 12:51:51;;;;;;;7.73;6.80;;;15.30;99.90;;;;;;4895411;29;21056;-67
2022/03/26 12:54:17;;;;;;;7.80;7.10;;;15.40;99.90;;;;;;4907599;29;20904;-67
2022/03/26 12:56:44;;;;;;;8.57;7.67;;;15.40;99.90;;;;;;4915594;29;20473;-66
2022/03/26 12:59:12;;;;;;;7.50;6.80;;;15.50;99.90;;;;;;4915175;29;20462;-68
2022/03/26 13:01:39;;;;;;;9.20;6.67;;;15.50;99.90;;;;;;4909133;29;20604;-65
2022/03/26 13:04:07;;;;;;;10.43;7.60;;;15.50;99.90;;;;;;4914694;29;20545;-68
2022/03/26 13:06:34;;;;;;;7.17;6.53;;;15.40;99.90;;;;;;4914318;29;20477;-68
2022/03/26 13:09:01;;;;;;;8.67;7.60;;;15.40;99.90;;;;;;4914511;29;20604;-67
2022/03/26 13:11:29;;;;;;;10.30;7.30;;;15.50;99.90;;;;;;4913676;29;20857;-68
2022/03/26 13:13:57;;;;;;;11.70;8.00;;;15.60;99.90;;;;;;4913378;29;20466;-65
2022/03/26 13:16:27;;;;;;;9.80;8.33;;;15.70;99.90;;;;;;4906383;29;20840;-66
2022/03/26 13:18:58;;;;;;;7.67;6.87;;;15.70;99.90;;;;;;4914031;29;20458;-67
2022/03/26 13:21:26;;;;;;;11.80;8.90;;;15.70;99.90;;;;;;4913321;29;20495;-67
2022/03/26 13:23:54;;;;;;;7.60;6.97;;;15.50;99.90;;;;;;4914185;29;20474;-68
2022/03/26 13:26:21;;;;;;;8.40;7.60;;;15.50;99.90;;;;;;4914068;29;20474;-67
2022/03/26 13:28:48;;;;;;;8.27;6.80;;;15.30;99.90;;;;;;4913729;29;20940;-68
2022/03/26 13:31:21;;;;;;;6.07;5.27;;;15.20;99.90;;;;;;4901171;29;20482;-67
2022/03/26 13:33:48;;;;;;;6.97;6.33;;;15.10;99.90;;;;;;4895294;29;21037;-67
2022/03/26 13:36:15;;;;;;;6.10;5.30;;;15.10;99.90;;;;;;4894805;29;20475;-67
2022/03/26 13:38:44;;;;;;;6.10;5.60;;;15.10;99.90;;;;;;4895321;29;21131;-68
2022/03/26 13:41:16;;;;;;;6.37;5.03;;;15.00;99.90;;;;;;4894469;29;20555;-67
2022/03/26 13:43:44;;;;;;;6.10;5.60;;;14.90;99.90;;;;;;4894850;29;20479;-68
2022/03/26 13:46:12;;;;;;;6.00;5.60;;;14.90;99.90;;;;;;4900022;29;20498;-68
2022/03/26 13:48:49;;;;;;;5.03;4.63;;;14.80;99.90;;;;;;4914105;29;20999;-69
2022/03/26 13:51:16;;;;;;;6.87;4.87;;;14.80;99.90;;;;;;4913425;29;20581;-67
2022/03/26 13:53:44;;;;;;;8.30;5.73;;;14.80;99.90;;;;;;4914221;29;20474;-70
2022/03/26 13:56:12;;;;;;;7.10;5.13;;;14.80;99.90;;;;;;4895223;29;20937;-68
2022/03/26 13:58:39;;;;;;;6.67;6.00;;;14.80;99.90;;;;;;4900338;29;20473;-70
2022/03/26 14:01:06;;;;;;;9.77;5.70;;;14.80;99.90;;;;;;4920948;29;20853;-68
2022/03/26 14:03:36;;;;;;;6.20;4.87;;;14.80;99.90;;;;;;4920868;23;21318;-67
2022/03/26 14:06:03;;;;;;;7.07;4.93;;;14.80;99.90;;;;;;4908622;29;20463;-68
2022/03/26 14:08:29;;;;;;;5.70;5.20;;;14.80;99.90;;;;;;4913558;29;20466;-68
2022/03/26 14:10:58;;;;;;;5.97;5.33;;;14.80;99.90;;;;;;4913372;29;20998;-68
2022/03/26 14:13:25;;;;;;;8.23;6.20;;;14.80;99.90;;;;;;4913031;29;20473;-67
2022/03/26 14:15:52;;;;;;;7.50;5.50;;;14.80;99.90;;;;;;4913948;29;20566;-68
2022/03/26 14:18:20;;;;;;;5.27;4.77;;;14.80;99.90;;;;;;4904119;29;20486;-68
2022/03/26 14:20:47;;;;;;;6.97;4.70;;;14.80;99.90;;;;;;4894876;29;20531;-66
2022/03/26 14:23:14;;;;;;;5.07;4.67;;;14.70;99.90;;;;;;4894575;29;20531;-67
2022/03/26 14:25:42;;;;;;;5.80;5.17;;;14.60;99.90;;;;;;4895344;29;20471;-68
2022/03/26 14:28:12;;;;;;;6.53;5.10;;;14.60;99.90;;;;;;4897964;29;20471;-67
2022/03/26 14:30:39;;;;;;;4.90;4.50;;;14.50;99.90;;;;;;4897286;29;20483;-68
2022/03/26 14:33:07;;;;;;;5.63;5.13;;;14.50;99.90;;;;;;4881036;29;20516;-68
2022/03/26 14:35:34;;;;;;;5.80;5.27;;;14.40;99.90;;;;;;4879541;29;20587;-68
2022/03/26 14:38:01;;;;;;;4.17;3.77;;;14.50;99.90;;;;;;4878803;29;20559;-66
2022/03/26 14:40:29;;;;;;;6.07;5.23;;;14.30;99.90;;;;;;4878592;29;20464;-67
2022/03/26 14:42:56;;;;;;;5.60;5.10;;;14.10;99.90;;;;;;4904451;29;20925;-66
2022/03/26 14:45:24;;;;;;;6.07;5.20;;;14.00;99.90;;;;;;4910729;29;20859;-68
2022/03/26 14:47:52;;;;;;;5.90;5.40;;;13.90;99.90;;;;;;4897853;29;20502;-68
2022/03/26 14:50:20;;;;;;;5.90;4.70;;;13.90;99.90;;;;;;4897236;29;20491;-68
2022/03/26 14:52:46;;;;;;;7.53;5.43;;;13.90;99.90;;;;;;4897288;29;20482;-67
2022/03/26 14:55:13;;;;;;;7.10;5.17;;;13.90;99.90;;;;;;4897534;29;20996;-67
2022/03/26 14:57:40;;;;;;;9.37;4.60;;;13.90;99.90;;;;;;4897099;29;20475;-67
2022/03/26 15:00:11;;;;;;;4.73;4.33;;;13.90;99.90;;;;;;4884499;29;20471;-67
2022/03/26 15:02:39;;;;;;;6.67;5.17;;;13.90;99.90;;;;;;4880591;29;20632;-67
2022/03/26 15:05:06;;;;;;;5.20;4.73;;;13.90;99.90;;;;;;4911788;29;20526;-66
2022/03/26 15:07:33;;;;;;;4.70;4.20;;;13.90;99.90;;;;;;4915599;29;20470;-67
2022/03/26 15:10:00;;;;;;;5.40;4.90;;;13.90;99.90;;;;;;4915570;29;20921;-66
2022/03/26 15:12:27;;;;;;;5.17;4.77;;;13.80;99.90;;;;;;4913707;29;20505;-67
2022/03/26 15:14:54;;;;;;;5.30;4.23;;;13.80;99.90;;;;;;4897394;29;20957;-66
2022/03/26 15:17:21;;;;;;;5.73;4.40;;;13.80;99.90;;;;;;4899457;29;20473;-67
2022/03/26 15:19:49;;;;;;;4.87;4.40;;;13.70;99.90;;;;;;4900599;29;20878;-66
2022/03/26 15:22:16;;;;;;;9.47;4.53;;;13.60;99.90;;;;;;4882767;29;20476;-67
2022/03/26 15:24:43;;;;;;;4.43;4.03;;;13.50;99.90;;;;;;4897833;29;20492;-66
2022/03/26 15:27:10;;;;;;;6.40;4.03;;;13.40;99.90;;;;;;4904201;29;20467;-67
2022/03/26 15:29:38;;;;;;;8.33;4.73;;;13.40;99.90;;;;;;4892384;29;20484;-67
2022/03/26 15:32:05;;;;;;;4.77;3.60;;;13.40;99.90;;;;;;4898214;29;20523;-67
2022/03/26 15:34:32;;;;;;;5.30;4.60;;;13.30;99.90;;;;;;4897512;29;20484;-67
2022/03/26 15:37:00;;;;;;;4.03;3.83;;;13.30;99.90;;;;;;4880714;29;20476;-67
2022/03/26 15:39:27;;;;;;;4.20;3.80;;;13.10;99.90;;;;;;4905432;29;20477;-68
2022/03/26 15:41:53;;;;;;;4.10;3.10;;;13.10;99.90;;;;;;4889344;29;20531;-69
2022/03/26 15:44:20;;;;;;;4.73;3.90;;;13.10;99.90;;;;;;4909845;29;20486;-67
2022/03/26 15:46:47;;;;;;;4.43;4.07;;;13.10;99.90;;;;;;4884241;29;20468;-68
2022/03/26 15:49:13;;;;;;;5.20;4.10;;;13.00;99.90;;;;;;4889144;29;20968;-68
2022/03/26 15:51:40;;;;;;;3.93;3.53;;;12.90;99.90;;;;;;4909556;29;21015;-67
2022/03/26 15:54:08;;;;;;;3.35;3.05;;;12.80;99.90;;;;;;4900149;29;20858;-68
2022/03/26 15:56:37;;;;;;;3.30;3.10;;;12.80;99.90;;;;;;4886083;29;20513;-67
2022/03/26 15:59:04;;;;;;;3.23;3.03;;;12.70;99.90;;;;;;4886731;29;20218;-67
2022/03/26 16:01:31;;;;;;;3.88;3.33;;;12.70;99.90;;;;;;4901279;29;20824;-68
2022/03/26 16:03:57;;;;;;;3.63;3.33;;;12.60;99.90;;;;;;4893888;29;20322;-67
2022/03/26 16:06:24;;;;;;;5.35;4.82;;;12.60;99.90;;;;;;4882392;29;20212;-68
2022/03/26 16:08:51;;;;;;;5.07;3.58;;;12.50;99.90;;;;;;4895930;29;20211;-68
2022/03/26 16:11:19;;;;;;;8.23;3.50;;;12.50;99.90;;;;;;4895553;29;20291;-68
2022/03/26 16:13:45;;;;;;;3.72;3.53;;;12.50;99.90;;;;;;4879794;29;20235;-67
2022/03/26 16:16:12;;;;;;;3.25;3.05;;;12.40;99.90;;;;;;4895306;29;20204;-67
2022/03/26 16:18:39;;;;;;;3.30;3.00;;;12.40;99.90;;;;;;4896755;29;20207;-66
2022/03/26 16:21:05;;;;;;;3.60;3.30;;;12.40;99.90;;;;;;4900572;29;20258;-67
2022/03/26 16:23:32;;;;;;;3.90;3.25;;;12.40;99.90;;;;;;4900986;29;20319;-67
2022/03/26 16:25:59;;;;;;;4.75;4.20;;;12.30;99.90;;;;;;4904244;29;20214;-68
2022/03/26 16:28:26;;;;;;;8.75;6.53;;;12.30;99.90;;;;;;4897691;29;20199;-67
2022/03/26 16:30:53;;;;;;;4.70;4.15;;;12.30;99.90;;;;;;4879169;29;20581;-67
2022/03/26 16:33:20;;;;;;;4.40;4.13;;;12.20;99.90;;;;;;4880947;29;20218;-68
2022/03/26 16:35:48;;;;;;;6.45;4.53;;;12.10;99.90;;;;;;4892207;29;20271;-67
2022/03/26 16:38:15;;;;;;;5.95;4.07;;;12.10;99.90;;;;;;4877370;29;20238;-68
2022/03/26 16:40:42;;;;;;;3.70;3.50;;;12.00;99.90;;;;;;4878667;29;20259;-68
2022/03/26 16:43:09;;;;;;;11.73;7.65;;;12.00;99.90;;;;;;4889461;29;20211;-68
2022/03/26 16:45:37;;;;;;;6.78;5.90;;;11.90;99.90;;;;;;4889640;29;20219;-68
2022/03/26 16:48:04;;;;;;;4.10;3.80;;;11.90;99.90;;;;;;4893566;29;20706;-68
2022/03/26 16:50:31;;;;;;;6.82;3.67;;;11.90;99.90;;;;;;4898053;29;20228;-68
2022/03/26 16:52:58;;;;;;;4.05;3.65;;;11.80;99.90;;;;;;4904233;29;20219;-68
2022/03/26 16:55:26;;;;;;;6.13;4.50;;;11.80;99.90;;;;;;4888920;29;20374;-69
2022/03/26 16:57:53;;;;;;;5.35;4.60;;;11.70;99.90;;;;;;4900024;29;20271;-67
2022/03/26 17:00:19;;;;;;;4.32;3.90;;;11.70;99.90;;;;;;4876857;29;20279;-68
2022/03/26 17:02:47;;;;;;;4.38;4.07;;;11.60;99.90;;;;;;4880214;29;20219;-67
2022/03/26 17:05:15;;;;;;;4.15;3.40;;;11.60;99.90;;;;;;4896716;29;20231;-68
2022/03/26 17:07:41;;;;;;;8.80;4.00;;;11.60;99.90;;;;;;4876487;29;20694;-68
2022/03/26 17:10:09;;;;;;;3.15;2.90;;;11.60;99.90;;;;;;4881850;29;20235;-67
2022/03/26 17:12:36;;;;;;;4.10;3.80;;;11.50;99.90;;;;;;4883574;29;20269;-66
2022/03/26 17:15:02;;;;;;;5.43;3.38;;;11.40;99.90;;;;;;4893366;29;20251;-67
2022/03/26 17:17:29;;;;;;;3.92;3.50;;;11.30;99.90;;;;;;4883225;29;20279;-66
2022/03/26 17:19:57;;;;;;;4.68;3.47;;;11.30;99.90;;;;;;4900018;29;20267;-67
2022/03/26 17:22:24;;;;;;;4.70;3.85;;;11.20;99.90;;;;;;4895819;29;20200;-67
2022/03/26 17:24:50;;;;;;;4.65;4.35;;;11.20;99.90;;;;;;4909483;29;20236;-67
2022/03/26 17:27:17;;;;;;;3.88;3.58;;;11.10;99.90;;;;;;4877254;29;20310;-66
2022/03/26 17:29:44;;;;;;;4.72;4.40;;;11.10;99.90;;;;;;4879212;29;20271;-67
2022/03/26 17:32:10;;;;;;;4.45;4.15;;;11.00;99.90;;;;;;4878623;29;20254;-66
2022/03/26 17:34:37;;;;;;;6.13;4.18;;;10.90;99.90;;;;;;4876531;29;20307;-66
2022/03/26 17:37:05;;;;;;;4.13;3.83;;;10.90;99.90;;;;;;4878141;29;20248;-68
2022/03/26 17:39:32;;;;;;;3.63;3.40;;;10.80;99.90;;;;;;4900409;29;20610;-66
2022/03/26 17:41:59;;;;;;;4.60;4.13;;;10.80;99.90;;;;;;4912056;29;20262;-65
2022/03/26 17:44:25;;;;;;;4.57;4.15;;;10.70;99.90;;;;;;4884756;29;20231;-68
2022/03/26 17:46:54;;;;;;;4.97;4.47;;;10.70;99.90;;;;;;4893822;29;20214;-67
2022/03/26 17:49:21;;;;;;;3.20;2.63;;;10.70;99.90;;;;;;4908414;29;20218;-67
2022/03/26 17:51:48;;;;;;;2.67;2.50;;;10.60;99.90;;;;;;4894623;29;20231;-67
2022/03/26 17:54:17;;;;;;;3.45;3.25;;;10.50;99.90;;;;;;4900871;29;20385;-66